createdAt,value
2018-03-26T00:00:06.106Z,1006.05
2018-03-26T00:01:59.090Z,1006.06
2018-03-26T00:02:59.099Z,1006.02
2018-03-26T00:04:53.070Z,1006.06
2018-03-26T00:05:55.018Z,1006.08
2018-03-26T00:07:46.410Z,1006.05
2018-03-26T00:08:46.414Z,1006.07
2018-03-26T00:10:40.453Z,1006.08
2018-03-26T00:11:40.421Z,1006.06
2018-03-26T00:13:32.689Z,1006.09
2018-03-26T00:14:32.330Z,1006.10
2018-03-26T00:16:26.381Z,1006.08
2018-03-26T00:17:25.383Z,1006.12
2018-03-26T00:19:18.365Z,1006.16
2018-03-26T00:20:18.338Z,1006.13
2018-03-26T00:22:11.401Z,1006.15
2018-03-26T00:23:12.214Z,1006.14
2018-03-26T00:25:06.253Z,1006.13
2018-03-26T00:26:06.163Z,1006.14
2018-03-26T00:27:57.348Z,1006.16
2018-03-26T00:28:57.133Z,1006.15
2018-03-26T00:30:50.317Z,1006.17
2018-03-26T00:31:50.179Z,1006.16
2018-03-26T00:33:43.122Z,1006.18
2018-03-26T00:34:45.086Z,1006.13
2018-03-26T00:36:36.583Z,1006.14
2018-03-26T00:37:36.043Z,1006.15
2018-03-26T00:39:29.530Z,1006.12
2018-03-26T00:40:30.937Z,1006.16
2018-03-26T00:42:23.891Z,1006.12
2018-03-26T00:43:21.932Z,1006.12
2018-03-26T00:45:16.381Z,1006.17
2018-03-26T00:46:15.842Z,1006.13
2018-03-26T00:48:08.407Z,1006.18
2018-03-26T00:49:07.873Z,1006.17
2018-03-26T00:51:00.952Z,1006.19
2018-03-26T00:52:00.914Z,1006.18
2018-03-26T00:53:58.812Z,1006.23
2018-03-26T00:54:54.826Z,1006.26
2018-03-26T00:56:48.812Z,1006.27
2018-03-26T00:57:47.833Z,1006.27
2018-03-26T00:59:40.806Z,1006.29
2018-03-26T01:00:39.794Z,1006.32
2018-03-26T01:02:36.686Z,1006.33
2018-03-26T01:03:33.699Z,1006.32
2018-03-26T01:05:26.657Z,1006.35
2018-03-26T01:06:25.704Z,1006.33
2018-03-26T01:08:18.647Z,1006.28
2018-03-26T01:09:18.675Z,1006.31
2018-03-26T01:11:12.645Z,1006.31
2018-03-26T01:12:11.601Z,1006.32
2018-03-26T01:14:04.823Z,1006.32
2018-03-26T01:15:04.667Z,1006.38
2018-03-26T01:16:59.007Z,1006.36
2018-03-26T01:17:57.548Z,1006.36
2018-03-26T01:19:50.567Z,1006.41
2018-03-26T01:20:53.457Z,1006.36
2018-03-26T01:22:43.453Z,1006.40
2018-03-26T01:23:43.418Z,1006.42
2018-03-26T01:25:36.388Z,1006.47
2018-03-26T01:26:36.365Z,1006.46
2018-03-26T01:28:29.364Z,1006.44
2018-03-26T01:29:30.308Z,1006.44
2018-03-26T01:31:25.275Z,1006.47
2018-03-26T01:32:22.273Z,1006.49
2018-03-26T01:34:15.288Z,1006.48
2018-03-26T01:35:16.222Z,1006.52
2018-03-26T01:37:08.198Z,1006.53
2018-03-26T01:38:08.188Z,1006.52
2018-03-26T01:40:04.145Z,1006.55
2018-03-26T01:41:01.185Z,1006.54
2018-03-26T01:42:57.569Z,1006.53
2018-03-26T01:43:55.099Z,1006.57
2018-03-26T01:45:47.622Z,1006.61
2018-03-26T01:46:47.072Z,1006.59
2018-03-26T01:48:40.106Z,1006.64
2018-03-26T01:49:41.012Z,1006.63
2018-03-26T01:51:34.453Z,1006.63
2018-03-26T01:52:33.980Z,1006.65
2018-03-26T01:54:25.987Z,1006.64
2018-03-26T01:55:25.936Z,1006.68
2018-03-26T01:57:20.895Z,1006.76
2018-03-26T01:58:19.875Z,1006.74
2018-03-26T02:00:13.352Z,1006.78
2018-03-26T02:01:11.840Z,1006.75
2018-03-26T02:03:04.917Z,1006.74
2018-03-26T02:04:04.884Z,1006.80
2018-03-26T02:05:58.732Z,1006.81
2018-03-26T02:06:57.764Z,1006.82
2018-03-26T02:08:50.805Z,1006.86
2018-03-26T02:09:51.682Z,1006.82
2018-03-26T02:11:43.705Z,1006.82
2018-03-26T02:12:43.665Z,1006.85
2018-03-26T02:14:36.649Z,1006.87
2018-03-26T02:15:36.624Z,1006.88
2018-03-26T02:17:30.605Z,1006.85
2018-03-26T02:18:29.586Z,1006.85
2018-03-26T02:20:22.637Z,1006.86
2018-03-26T02:21:22.567Z,1006.87
2018-03-26T02:23:15.528Z,1006.86
2018-03-26T02:24:15.495Z,1006.84
2018-03-26T02:26:09.007Z,1006.89
2018-03-26T02:27:08.467Z,1006.87
2018-03-26T02:29:01.461Z,1006.89
2018-03-26T02:30:01.430Z,1006.94
2018-03-26T02:31:54.497Z,1006.94
2018-03-26T02:32:54.372Z,1006.99
2018-03-26T02:34:50.930Z,1006.95
2018-03-26T02:35:47.339Z,1006.96
2018-03-26T02:37:41.281Z,1006.95
2018-03-26T02:38:40.296Z,1006.98
2018-03-26T02:40:33.242Z,1006.98
2018-03-26T02:41:33.256Z,1006.98
2018-03-26T02:43:28.203Z,1007.02
2018-03-26T02:44:26.220Z,1007.01
2018-03-26T02:46:19.188Z,1007.03
2018-03-26T02:47:19.151Z,1007.03
2018-03-26T02:49:12.244Z,1007.05
2018-03-26T02:50:12.132Z,1007.03
2018-03-26T02:52:05.111Z,1007.07
2018-03-26T02:53:06.055Z,1007.07
2018-03-26T02:54:58.082Z,1007.06
2018-03-26T02:55:58.035Z,1007.07
2018-03-26T02:57:56.049Z,1007.06
2018-03-26T02:58:50.980Z,1007.05
2018-03-26T03:00:44.048Z,1007.05
2018-03-26T03:01:43.950Z,1007.06
2018-03-26T03:03:36.903Z,1007.10
2018-03-26T03:04:36.913Z,1007.09
2018-03-26T03:06:31.969Z,1007.08
2018-03-26T03:07:29.873Z,1007.09
2018-03-26T03:09:24.875Z,1007.11
2018-03-26T03:10:22.828Z,1007.12
2018-03-26T03:12:16.301Z,1007.14
2018-03-26T03:13:15.779Z,1007.16
2018-03-26T03:15:08.801Z,1007.19
2018-03-26T03:16:08.729Z,1007.14
2018-03-26T03:18:01.747Z,1007.16
2018-03-26T03:19:02.694Z,1007.17
2018-03-26T03:20:55.404Z,1007.13
2018-03-26T03:21:54.707Z,1007.16
2018-03-26T03:23:48.580Z,1007.12
2018-03-26T03:24:47.608Z,1007.12
2018-03-26T03:26:41.125Z,1007.07
2018-03-26T03:27:40.587Z,1007.12
2018-03-26T03:29:33.622Z,1007.12
2018-03-26T03:30:33.533Z,1007.15
2018-03-26T03:32:26.509Z,1007.14
2018-03-26T03:33:26.515Z,1007.15
2018-03-26T03:35:21.521Z,1007.16
2018-03-26T03:36:19.430Z,1007.19
2018-03-26T03:38:12.462Z,1007.21
2018-03-26T03:39:12.424Z,1007.21
2018-03-26T03:41:05.403Z,1007.16
2018-03-26T03:42:05.370Z,1007.17
2018-03-26T03:43:58.471Z,1007.19
2018-03-26T03:44:58.294Z,1007.19
2018-03-26T03:46:52.254Z,1007.25
2018-03-26T03:47:52.276Z,1007.23
2018-03-26T03:49:44.453Z,1007.27
2018-03-26T03:50:44.235Z,1007.23
2018-03-26T03:52:37.214Z,1007.22
2018-03-26T03:53:37.203Z,1007.28
2018-03-26T03:55:31.175Z,1007.23
2018-03-26T03:56:31.174Z,1007.25
2018-03-26T03:58:24.605Z,1007.23
2018-03-26T03:59:25.052Z,1007.20
2018-03-26T04:01:16.160Z,1007.24
2018-03-26T04:02:17.096Z,1007.21
2018-03-26T04:04:09.580Z,1007.21
2018-03-26T04:05:09.065Z,1007.20
2018-03-26T04:07:04.450Z,1007.24
2018-03-26T04:08:01.978Z,1007.21
2018-03-26T04:09:55.948Z,1007.25
2018-03-26T04:10:54.941Z,1007.21
2018-03-26T04:12:47.952Z,1007.24
2018-03-26T04:13:47.906Z,1007.25
2018-03-26T04:15:41.865Z,1007.29
2018-03-26T04:16:40.901Z,1007.28
2018-03-26T04:18:33.830Z,1007.28
2018-03-26T04:19:33.812Z,1007.32
2018-03-26T04:21:26.769Z,1007.32
2018-03-26T04:22:26.769Z,1007.37
2018-03-26T04:24:19.700Z,1007.38
2018-03-26T04:25:19.711Z,1007.35
2018-03-26T04:27:13.178Z,1007.40
2018-03-26T04:28:13.666Z,1007.41
2018-03-26T04:30:05.611Z,1007.45
2018-03-26T04:31:05.612Z,1007.46
2018-03-26T04:32:58.587Z,1007.48
2018-03-26T04:33:58.566Z,1007.51
2018-03-26T04:35:51.532Z,1007.49
2018-03-26T04:36:51.544Z,1007.49
2018-03-26T04:38:44.554Z,1007.48
2018-03-26T04:39:44.488Z,1007.43
2018-03-26T04:41:37.589Z,1007.48
2018-03-26T04:42:37.552Z,1007.51
2018-03-26T04:44:30.431Z,1007.55
2018-03-26T04:45:30.401Z,1007.51
2018-03-26T04:47:23.359Z,1007.48
2018-03-26T04:48:23.406Z,1007.48
2018-03-26T04:50:16.333Z,1007.46
2018-03-26T04:51:24.893Z,1007.52
2018-03-26T04:53:09.269Z,1007.51
2018-03-26T04:54:09.278Z,1007.48
2018-03-26T04:56:02.271Z,1007.53
2018-03-26T04:57:02.213Z,1007.56
2018-03-26T04:58:55.181Z,1007.56
2018-03-26T04:59:55.191Z,1007.55
2018-03-26T05:01:48.177Z,1007.61
2018-03-26T05:02:48.131Z,1007.63
2018-03-26T05:04:41.091Z,1007.63
2018-03-26T05:05:41.083Z,1007.63
2018-03-26T05:07:34.190Z,1007.62
2018-03-26T05:08:34.052Z,1007.62
2018-03-26T05:10:27.005Z,1007.66
2018-03-26T05:11:27.006Z,1007.65
2018-03-26T05:13:20.004Z,1007.66
2018-03-26T05:14:19.983Z,1007.68
2018-03-26T05:16:12.960Z,1007.71
2018-03-26T05:17:12.916Z,1007.71
2018-03-26T05:19:06.050Z,1007.73
2018-03-26T05:20:06.013Z,1007.78
2018-03-26T05:21:58.961Z,1007.78
2018-03-26T05:22:58.938Z,1007.79
2018-03-26T05:24:51.926Z,1007.88
2018-03-26T05:25:51.884Z,1007.87
2018-03-26T05:27:44.900Z,1007.94
2018-03-26T05:28:44.853Z,1007.92
2018-03-26T05:30:37.989Z,1007.97
2018-03-26T05:31:37.803Z,1007.99
2018-03-26T05:33:30.789Z,1008.00
2018-03-26T05:34:30.790Z,1008.01
2018-03-26T05:36:23.747Z,1008.03
2018-03-26T05:37:23.729Z,1008.05
2018-03-26T05:38:23.730Z,1008.05
2018-03-26T05:39:23.736Z,1008.05
2018-03-26T05:40:24.789Z,1008.10
2018-03-26T05:41:26.763Z,1008.13
2018-03-26T05:43:19.079Z,1008.14
2018-03-26T05:44:16.806Z,1008.16
2018-03-26T05:46:10.777Z,1008.19
2018-03-26T05:47:09.687Z,1008.23
2018-03-26T05:49:04.615Z,1008.25
2018-03-26T05:50:02.656Z,1008.27
2018-03-26T05:51:56.591Z,1008.29
2018-03-26T05:52:55.572Z,1008.32
2018-03-26T05:54:48.600Z,1008.39
2018-03-26T05:55:48.556Z,1008.36
2018-03-26T05:57:41.504Z,1008.43
2018-03-26T05:58:41.499Z,1008.44
2018-03-26T06:00:34.490Z,1008.46
2018-03-26T06:01:34.452Z,1008.48
2018-03-26T06:03:27.410Z,1008.53
2018-03-26T06:04:27.418Z,1008.52
2018-03-26T06:06:20.447Z,1008.51
2018-03-26T06:07:20.362Z,1008.54
2018-03-26T06:09:13.399Z,1008.58
2018-03-26T06:10:13.345Z,1008.60
2018-03-26T06:12:06.419Z,1008.62
2018-03-26T06:13:06.300Z,1008.62
2018-03-26T06:14:59.248Z,1008.61
2018-03-26T06:15:59.243Z,1008.65
2018-03-26T06:17:52.344Z,1008.65
2018-03-26T06:18:52.331Z,1008.69
2018-03-26T06:20:45.249Z,1008.71
2018-03-26T06:21:45.255Z,1008.73
2018-03-26T06:23:38.709Z,1008.69
2018-03-26T06:24:38.214Z,1008.70
2018-03-26T06:26:31.173Z,1008.66
2018-03-26T06:27:31.173Z,1008.69
2018-03-26T06:29:24.196Z,1008.69
2018-03-26T06:30:25.151Z,1008.73
2018-03-26T06:32:17.491Z,1008.76
2018-03-26T06:33:18.867Z,1008.75
2018-03-26T06:35:10.077Z,1008.80
2018-03-26T06:36:10.039Z,1008.82
2018-03-26T06:37:10.043Z,1008.83
2018-03-26T06:38:10.045Z,1008.83
2018-03-26T06:39:10.046Z,1008.87
2018-03-26T06:40:10.047Z,1008.91
2018-03-26T06:41:10.056Z,1008.86
2018-03-26T06:42:10.069Z,1008.87
2018-03-26T06:43:10.071Z,1008.99
2018-03-26T06:44:10.144Z,1008.96
2018-03-26T06:46:02.966Z,1009.03
2018-03-26T06:47:02.959Z,1009.01
2018-03-26T06:48:55.912Z,1009.03
2018-03-26T06:49:55.914Z,1009.03
2018-03-26T06:51:49.403Z,1009.12
2018-03-26T06:52:48.873Z,1009.07
2018-03-26T06:54:41.844Z,1009.10
2018-03-26T06:55:41.838Z,1009.14
2018-03-26T06:57:34.843Z,1009.16
2018-03-26T06:58:34.796Z,1009.18
2018-03-26T06:59:34.805Z,1009.28
2018-03-26T07:00:34.791Z,1009.24
2018-03-26T07:01:34.799Z,1009.26
2018-03-26T07:02:34.806Z,1009.30
2018-03-26T07:03:34.813Z,1009.60
2018-03-26T07:04:34.807Z,1009.57
2018-03-26T07:05:34.818Z,1009.33
2018-03-26T07:06:34.822Z,1009.39
2018-03-26T07:07:34.819Z,1009.48
2018-03-26T07:08:34.828Z,1009.48
2018-03-26T07:09:34.826Z,1009.89
2018-03-26T07:10:34.850Z,1009.97
2018-03-26T07:11:34.844Z,1009.97
2018-03-26T07:12:34.837Z,1009.52
2018-03-26T07:13:34.845Z,1009.51
2018-03-26T07:14:34.848Z,1009.96
2018-03-26T07:15:34.857Z,1009.91
2018-03-26T07:16:34.856Z,1010.02
2018-03-26T07:17:34.871Z,1010.21
2018-03-26T07:18:34.868Z,1010.20
2018-03-26T07:19:34.872Z,1010.24
2018-03-26T07:20:34.882Z,1010.18
2018-03-26T07:21:34.881Z,1010.33
2018-03-26T07:22:34.881Z,1010.38
2018-03-26T07:23:34.888Z,1010.35
2018-03-26T07:24:34.890Z,1010.37
2018-03-26T07:25:34.905Z,1010.41
2018-03-26T07:26:34.908Z,1010.40
2018-03-26T07:27:34.939Z,1010.45
2018-03-26T07:28:34.921Z,1010.44
2018-03-26T07:29:34.953Z,1010.53
2018-03-26T07:30:34.930Z,1010.56
2018-03-26T07:31:34.941Z,1010.53
2018-03-26T07:32:34.946Z,1010.56
2018-03-26T07:33:34.957Z,1010.55
2018-03-26T07:34:34.961Z,1010.59
2018-03-26T07:35:34.996Z,1010.61
2018-03-26T07:36:34.975Z,1010.58
2018-03-26T07:37:35.007Z,1010.58
2018-03-26T07:38:35.002Z,1010.59
2018-03-26T07:39:35.003Z,1010.59
2018-03-26T07:40:35.021Z,1010.64
2018-03-26T07:41:35.022Z,1010.59
2018-03-26T07:42:35.045Z,1010.70
2018-03-26T07:43:35.043Z,1010.64
2018-03-26T07:44:35.063Z,1010.66
2018-03-26T07:45:35.067Z,1010.60
2018-03-26T07:46:35.076Z,1010.72
2018-03-26T07:47:35.097Z,1010.53
2018-03-26T07:48:35.106Z,1010.72
2018-03-26T07:49:35.119Z,1010.72
2018-03-26T07:50:35.131Z,1010.63
2018-03-26T07:51:35.148Z,1010.65
2018-03-26T07:52:35.159Z,1010.74
2018-03-26T07:53:35.163Z,1010.72
2018-03-26T07:54:35.177Z,1010.62
2018-03-26T07:55:35.186Z,1010.47
2018-03-26T07:56:35.205Z,1010.59
2018-03-26T07:57:35.240Z,1010.72
2018-03-26T07:58:35.225Z,1010.85
2018-03-26T07:59:35.250Z,1010.81
2018-03-26T08:00:35.279Z,1010.95
2018-03-26T08:01:35.267Z,1010.79
2018-03-26T08:02:35.282Z,1010.54
2018-03-26T08:03:35.292Z,1010.65
2018-03-26T08:04:35.312Z,1010.39
2018-03-26T08:05:35.326Z,1010.59
2018-03-26T08:06:35.354Z,1010.64
2018-03-26T08:07:35.354Z,1010.69
2018-03-26T08:08:35.368Z,1010.68
2018-03-26T08:09:35.384Z,1010.41
2018-03-26T08:10:35.398Z,1010.73
2018-03-26T08:11:35.407Z,1010.93
2018-03-26T08:12:35.425Z,1011.02
2018-03-26T08:13:35.434Z,1011.01
2018-03-26T08:14:35.504Z,1011.04
2018-03-26T08:15:35.577Z,1011.07
2018-03-26T08:16:35.474Z,1011.13
2018-03-26T08:17:35.538Z,1011.14
2018-03-26T08:18:35.503Z,1011.15
2018-03-26T08:19:35.556Z,1011.09
2018-03-26T08:20:35.537Z,1011.19
2018-03-26T08:21:35.574Z,1011.16
2018-03-26T08:22:35.565Z,1011.25
2018-03-26T08:23:35.584Z,1011.19
2018-03-26T08:24:35.594Z,1011.06
2018-03-26T08:25:35.611Z,1011.28
2018-03-26T08:26:35.625Z,1011.25
2018-03-26T08:27:35.641Z,1011.20
2018-03-26T08:28:35.648Z,1011.31
2018-03-26T08:29:35.667Z,1011.31
2018-03-26T08:30:35.691Z,1011.32
2018-03-26T08:31:35.713Z,1011.34
2018-03-26T08:32:35.727Z,1011.25
2018-03-26T08:33:35.738Z,1011.38
2018-03-26T08:34:35.747Z,1010.97
2018-03-26T08:35:35.766Z,1011.42
2018-03-26T08:36:35.791Z,1011.38
2018-03-26T08:37:35.797Z,1011.40
2018-03-26T08:38:35.816Z,1011.42
2018-03-26T08:39:35.837Z,1011.44
2018-03-26T08:40:35.899Z,1011.41
2018-03-26T08:41:35.869Z,1011.45
2018-03-26T08:42:35.905Z,1011.44
2018-03-26T08:43:35.914Z,1011.38
2018-03-26T08:44:35.920Z,1011.39
2018-03-26T08:45:35.939Z,1011.44
2018-03-26T08:46:35.953Z,1011.48
2018-03-26T08:47:35.973Z,1011.42
2018-03-26T08:48:35.997Z,1011.44
2018-03-26T08:49:36.004Z,1011.38
2018-03-26T08:50:36.028Z,1011.49
2018-03-26T08:51:36.043Z,1011.46
2018-03-26T08:52:36.065Z,1011.55
2018-03-26T08:53:36.136Z,1011.28
2018-03-26T08:54:36.107Z,1011.42
2018-03-26T08:55:36.120Z,1011.43
2018-03-26T08:56:36.139Z,1011.56
2018-03-26T08:57:36.148Z,1011.53
2018-03-26T08:58:36.174Z,1011.36
2018-03-26T08:59:36.212Z,1011.49
2018-03-26T09:00:36.211Z,1011.52
2018-03-26T09:01:36.234Z,1011.49
2018-03-26T09:02:36.247Z,1011.45
2018-03-26T09:03:36.265Z,1011.27
2018-03-26T09:04:36.276Z,1011.39
2018-03-26T09:05:36.306Z,1011.44
2018-03-26T09:06:36.332Z,1011.35
2018-03-26T09:07:36.333Z,1011.31
2018-03-26T09:08:36.362Z,1011.41
2018-03-26T09:09:36.376Z,1011.42
2018-03-26T09:10:36.395Z,1011.39
2018-03-26T09:11:36.424Z,1011.39
2018-03-26T09:12:36.437Z,1011.33
2018-03-26T09:13:36.450Z,1011.40
2018-03-26T09:14:36.471Z,1011.35
2018-03-26T09:15:36.493Z,1011.34
2018-03-26T09:16:36.543Z,1011.37
2018-03-26T09:17:36.549Z,1011.35
2018-03-26T09:18:36.547Z,1011.36
2018-03-26T09:19:36.562Z,1011.36
2018-03-26T09:20:36.586Z,1011.35
2018-03-26T09:21:36.601Z,1011.40
2018-03-26T09:22:36.624Z,1011.41
2018-03-26T09:23:36.639Z,1011.44
2018-03-26T09:24:36.672Z,1011.40
2018-03-26T09:25:36.680Z,1011.45
2018-03-26T09:26:36.695Z,1011.47
2018-03-26T09:27:36.720Z,1011.43
2018-03-26T09:28:36.740Z,1011.49
2018-03-26T09:29:36.796Z,1011.42
2018-03-26T09:30:36.777Z,1011.42
2018-03-26T09:31:36.800Z,1011.47
2018-03-26T09:32:36.811Z,1011.47
2018-03-26T09:33:36.835Z,1011.47
2018-03-26T09:34:36.857Z,1011.49
2018-03-26T09:35:36.876Z,1011.56
2018-03-26T09:36:36.896Z,1011.56
2018-03-26T09:37:36.912Z,1011.58
2018-03-26T09:38:36.935Z,1011.64
2018-03-26T09:39:36.955Z,1011.61
2018-03-26T09:40:36.989Z,1011.65
2018-03-26T09:41:36.998Z,1011.68
2018-03-26T09:42:37.015Z,1011.68
2018-03-26T09:43:37.040Z,1011.68
2018-03-26T09:44:37.054Z,1011.72
2018-03-26T09:45:37.083Z,1011.75
2018-03-26T09:46:37.098Z,1011.75
2018-03-26T09:47:37.117Z,1011.79
2018-03-26T09:48:37.140Z,1011.79
2018-03-26T09:49:37.156Z,1011.86
2018-03-26T09:50:37.181Z,1011.84
2018-03-26T09:51:37.204Z,1011.93
2018-03-26T09:52:37.213Z,1011.96
2018-03-26T09:53:37.242Z,1012.00
2018-03-26T09:54:37.262Z,1012.05
2018-03-26T09:55:37.334Z,1012.05
2018-03-26T09:56:37.298Z,1012.04
2018-03-26T09:57:37.325Z,1012.07
2018-03-26T09:58:37.331Z,1012.09
2018-03-26T09:59:37.365Z,1012.13
2018-03-26T10:00:37.379Z,1012.27
2018-03-26T10:01:37.399Z,1012.38
2018-03-26T10:02:37.415Z,1012.35
2018-03-26T10:03:37.439Z,1012.32
2018-03-26T10:04:37.458Z,1012.34
2018-03-26T10:05:37.483Z,1012.29
2018-03-26T10:06:37.495Z,1012.32
2018-03-26T10:07:37.531Z,1012.32
2018-03-26T10:08:37.544Z,1012.39
2018-03-26T10:09:37.556Z,1012.58
2018-03-26T10:10:37.586Z,1012.90
2018-03-26T10:11:37.607Z,1012.98
2018-03-26T10:12:37.618Z,1012.96
2018-03-26T10:13:37.650Z,1012.93
2018-03-26T10:14:37.661Z,1013.00
2018-03-26T10:15:37.685Z,1013.08
2018-03-26T10:16:37.703Z,1013.05
2018-03-26T10:17:37.739Z,1013.09
2018-03-26T10:18:37.746Z,1013.01
2018-03-26T10:19:37.766Z,1012.97
2018-03-26T10:20:37.793Z,1012.82
2018-03-26T10:21:37.806Z,1012.80
2018-03-26T10:22:37.837Z,1012.87
2018-03-26T10:23:37.853Z,1012.84
2018-03-26T10:24:37.866Z,1012.81
2018-03-26T10:25:37.889Z,1012.79
2018-03-26T10:26:37.914Z,1012.88
2018-03-26T10:27:37.926Z,1012.98
2018-03-26T10:28:37.949Z,1012.90
2018-03-26T10:29:37.972Z,1012.85
2018-03-26T10:30:37.990Z,1012.90
2018-03-26T10:31:38.015Z,1012.90
2018-03-26T10:32:38.034Z,1012.91
2018-03-26T10:33:38.081Z,1012.34
2018-03-26T10:34:38.069Z,1012.14
2018-03-26T10:35:38.094Z,1012.61
2018-03-26T10:36:38.108Z,1012.72
2018-03-26T10:37:38.136Z,1012.69
2018-03-26T10:38:38.149Z,1012.61
2018-03-26T10:39:38.190Z,1012.50
2018-03-26T10:40:38.201Z,1012.10
2018-03-26T10:41:38.234Z,1012.15
2018-03-26T10:42:38.220Z,1012.37
2018-03-26T10:43:38.286Z,1012.36
2018-03-26T10:44:38.268Z,1012.33
2018-03-26T10:45:38.282Z,1012.22
2018-03-26T10:46:38.300Z,1012.14
2018-03-26T10:47:38.318Z,1012.07
2018-03-26T10:48:38.350Z,1012.14
2018-03-26T10:49:38.363Z,1012.08
2018-03-26T10:50:38.380Z,1012.13
2018-03-26T10:51:38.401Z,1012.09
2018-03-26T10:52:38.418Z,1011.98
2018-03-26T10:53:38.433Z,1011.93
2018-03-26T10:54:38.553Z,1011.78
2018-03-26T10:55:38.478Z,1011.64
2018-03-26T10:56:38.496Z,1011.63
2018-03-26T10:57:38.512Z,1011.64
2018-03-26T10:58:38.526Z,1011.65
2018-03-26T10:59:38.552Z,1011.59
2018-03-26T11:00:38.563Z,1011.54
2018-03-26T11:01:38.586Z,1011.44
2018-03-26T11:02:38.597Z,1011.36
2018-03-26T11:03:38.625Z,1011.38
2018-03-26T11:04:38.638Z,1011.46
2018-03-26T11:05:38.666Z,1011.45
2018-03-26T11:06:38.675Z,1011.51
2018-03-26T11:07:38.686Z,1011.49
2018-03-26T11:08:38.712Z,1011.30
2018-03-26T11:09:38.734Z,1011.38
2018-03-26T11:10:38.751Z,1011.33
2018-03-26T11:11:38.766Z,1011.33
2018-03-26T11:12:38.809Z,1011.38
2018-03-26T11:13:38.797Z,1011.37
2018-03-26T11:14:38.819Z,1011.38
2018-03-26T11:15:38.833Z,1011.39
2018-03-26T11:16:38.869Z,1011.41
2018-03-26T11:17:38.870Z,1011.40
2018-03-26T11:18:38.888Z,1011.30
2018-03-26T11:19:38.904Z,1011.32
2018-03-26T11:20:38.935Z,1011.32
2018-03-26T11:21:38.936Z,1011.36
2018-03-26T11:22:38.967Z,1011.32
2018-03-26T11:23:38.974Z,1011.31
2018-03-26T11:24:38.994Z,1011.36
2018-03-26T11:25:39.074Z,1011.40
2018-03-26T11:26:39.023Z,1011.33
2018-03-26T11:27:39.055Z,1011.18
2018-03-26T11:28:39.048Z,1011.18
2018-03-26T11:29:39.091Z,1011.22
2018-03-26T11:30:39.091Z,1011.25
2018-03-26T11:31:39.163Z,1011.19
2018-03-26T11:32:39.122Z,1011.22
2018-03-26T11:33:39.148Z,1011.11
2018-03-26T11:34:39.165Z,1011.13
2018-03-26T11:35:39.173Z,1011.15
2018-03-26T11:36:39.188Z,1011.13
2018-03-26T11:37:39.199Z,1011.09
2018-03-26T11:38:39.226Z,1011.01
2018-03-26T11:39:39.276Z,1011.01
2018-03-26T11:40:39.254Z,1011.02
2018-03-26T11:41:39.264Z,1011.07
2018-03-26T11:42:39.358Z,1011.10
2018-03-26T11:43:39.402Z,1011.14
2018-03-26T11:44:39.330Z,1011.15
2018-03-26T11:45:39.346Z,1011.14
2018-03-26T11:46:39.351Z,1011.11
2018-03-26T11:47:39.369Z,1011.11
2018-03-26T11:48:39.378Z,1011.10
2018-03-26T11:49:39.402Z,1011.11
2018-03-26T11:50:39.422Z,1011.12
2018-03-26T11:51:39.410Z,1011.15
2018-03-26T11:52:39.428Z,1011.10
2018-03-26T11:53:39.439Z,1011.08
2018-03-26T11:54:39.473Z,1011.09
2018-03-26T11:55:39.514Z,1011.07
2018-03-26T11:56:39.526Z,1011.09
2018-03-26T11:57:39.512Z,1011.12
2018-03-26T11:58:39.538Z,1011.09
2018-03-26T11:59:39.551Z,1011.03
2018-03-26T12:00:39.556Z,1010.92
2018-03-26T12:01:39.563Z,1010.68
2018-03-26T12:02:39.582Z,1010.59
2018-03-26T12:03:39.609Z,1010.58
2018-03-26T12:04:39.614Z,1010.64
2018-03-26T12:05:39.619Z,1010.59
2018-03-26T12:06:39.628Z,1010.62
2018-03-26T12:07:39.641Z,1010.60
2018-03-26T12:08:39.717Z,1010.59
2018-03-26T12:09:39.715Z,1010.57
2018-03-26T12:10:39.697Z,1010.57
2018-03-26T12:11:39.739Z,1010.53
2018-03-26T12:12:39.736Z,1010.60
2018-03-26T12:13:39.750Z,1010.59
2018-03-26T12:14:39.827Z,1010.55
2018-03-26T12:15:39.815Z,1010.57
2018-03-26T12:16:39.777Z,1010.55
2018-03-26T12:17:39.815Z,1010.54
2018-03-26T12:18:39.791Z,1010.54
2018-03-26T12:19:39.812Z,1010.53
2018-03-26T12:20:39.800Z,1010.52
2018-03-26T12:21:39.818Z,1010.59
2018-03-26T12:22:39.838Z,1010.53
2018-03-26T12:23:39.859Z,1010.58
2018-03-26T12:24:39.857Z,1010.57
2018-03-26T12:25:39.886Z,1010.58
2018-03-26T12:26:39.866Z,1010.55
2018-03-26T12:27:39.884Z,1010.56
2018-03-26T12:28:39.886Z,1010.50
2018-03-26T12:29:39.899Z,1010.43
2018-03-26T12:30:39.907Z,1010.42
2018-03-26T12:31:39.910Z,1010.40
2018-03-26T12:32:39.924Z,1010.42
2018-03-26T12:33:39.935Z,1010.45
2018-03-26T12:34:39.938Z,1010.42
2018-03-26T12:35:39.951Z,1010.41
2018-03-26T12:36:39.974Z,1010.35
2018-03-26T12:37:39.961Z,1010.35
2018-03-26T12:38:39.981Z,1010.33
2018-03-26T12:39:39.994Z,1010.29
2018-03-26T12:40:40.037Z,1010.35
2018-03-26T12:41:40.002Z,1010.31
2018-03-26T12:42:40.060Z,1010.29
2018-03-26T12:43:40.021Z,1010.25
2018-03-26T12:44:40.066Z,1010.28
2018-03-26T12:45:40.104Z,1010.29
2018-03-26T12:46:40.069Z,1010.26
2018-03-26T12:47:40.081Z,1010.28
2018-03-26T12:48:40.095Z,1010.26
2018-03-26T12:49:40.104Z,1010.27
2018-03-26T12:50:40.073Z,1010.28
2018-03-26T12:51:40.126Z,1010.27
2018-03-26T12:52:40.125Z,1010.28
2018-03-26T12:53:40.116Z,1010.25
2018-03-26T12:54:40.108Z,1010.30
2018-03-26T12:55:40.144Z,1010.27
2018-03-26T12:56:40.121Z,1010.32
2018-03-26T12:57:40.151Z,1010.33
2018-03-26T12:58:40.149Z,1010.36
2018-03-26T12:59:40.159Z,1010.31
2018-03-26T13:00:40.161Z,1010.33
2018-03-26T13:01:40.194Z,1010.35
2018-03-26T13:02:40.171Z,1010.28
2018-03-26T13:03:40.214Z,1010.31
2018-03-26T13:04:40.196Z,1010.29
2018-03-26T13:05:40.195Z,1010.30
2018-03-26T13:06:40.216Z,1010.38
2018-03-26T13:07:40.231Z,1010.41
2018-03-26T13:08:40.238Z,1010.37
2018-03-26T13:09:40.224Z,1010.36
2018-03-26T13:10:40.242Z,1010.33
2018-03-26T13:11:40.243Z,1010.35
2018-03-26T13:12:40.240Z,1010.26
2018-03-26T13:13:40.257Z,1010.31
2018-03-26T13:14:40.262Z,1010.31
2018-03-26T13:15:40.257Z,1010.32
2018-03-26T13:16:40.266Z,1010.30
2018-03-26T13:17:40.280Z,1010.33
2018-03-26T13:18:40.290Z,1010.27
2018-03-26T13:19:40.292Z,1010.29
2018-03-26T13:20:40.295Z,1010.31
2018-03-26T13:21:40.311Z,1010.30
2018-03-26T13:22:40.314Z,1010.28
2018-03-26T13:23:40.316Z,1010.28
2018-03-26T13:24:40.329Z,1010.25
2018-03-26T13:25:40.326Z,1010.29
2018-03-26T13:26:40.347Z,1010.30
2018-03-26T13:27:40.358Z,1010.29
2018-03-26T13:28:40.961Z,1010.29
2018-03-26T13:29:40.393Z,1010.28
2018-03-26T13:30:40.491Z,1010.30
2018-03-26T13:31:40.443Z,1010.31
2018-03-26T13:32:40.404Z,1010.31
2018-03-26T13:33:40.388Z,1010.29
2018-03-26T13:34:40.386Z,1010.28
2018-03-26T13:35:40.401Z,1010.31
2018-03-26T13:36:40.417Z,1010.31
2018-03-26T13:37:40.416Z,1010.31
2018-03-26T13:38:40.421Z,1010.32
2018-03-26T13:39:40.404Z,1010.28
2018-03-26T13:40:40.432Z,1010.31
2018-03-26T13:41:40.441Z,1010.33
2018-03-26T13:42:40.424Z,1010.35
2018-03-26T13:43:40.453Z,1010.34
2018-03-26T13:44:40.494Z,1010.37
2018-03-26T13:45:40.446Z,1010.38
2018-03-26T13:46:40.477Z,1010.33
2018-03-26T13:47:40.462Z,1010.40
2018-03-26T13:48:40.469Z,1010.38
2018-03-26T13:49:40.476Z,1010.42
2018-03-26T13:50:40.477Z,1010.45
2018-03-26T13:51:40.488Z,1010.37
2018-03-26T13:52:40.519Z,1010.45
2018-03-26T13:53:40.506Z,1010.45
2018-03-26T13:54:40.515Z,1010.42
2018-03-26T13:55:40.524Z,1010.41
2018-03-26T13:56:40.525Z,1010.39
2018-03-26T13:57:40.530Z,1010.41
2018-03-26T13:58:40.593Z,1010.42
2018-03-26T13:59:40.550Z,1010.40
2018-03-26T14:00:40.545Z,1010.41
2018-03-26T14:01:40.552Z,1010.41
2018-03-26T14:02:40.556Z,1010.40
2018-03-26T14:03:40.565Z,1010.46
2018-03-26T14:04:40.567Z,1010.42
2018-03-26T14:05:40.577Z,1010.38
2018-03-26T14:06:40.585Z,1010.40
2018-03-26T14:07:40.592Z,1010.36
2018-03-26T14:08:40.594Z,1010.39
2018-03-26T14:09:40.615Z,1010.40